TAF Text Data
IDs:
Format:
Raw Decoded Include METAR

Data at: 0215 UTC 19 Feb 2019

Region: TOP
KATL 190202Z 1902/2006 34007KT P6SM VCSH BKN090
  TEMPO 1902/1906 P6SM -RA BKN060
  FM190700 02009KT P6SM VCSH BKN050
  FM191400 07011KT P6SM -RA OVC040
  FM191700 07014G22KT 6SM -SHRA OVC040
  FM192100 08016G25KT 6SM -SHRA BR OVC025
  FM200000 10015G25KT 5SM -SHRA BR OVC015


KBOS 182340Z 1900/2006 34010KT P6SM OVC045
  FM190200 33011G18KT P6SM SCT040
  FM190300 32012G22KT P6SM FEW120
  FM191000 31010KT P6SM SKC
  FM191600 30011G18KT P6SM FEW250
  FM192000 30011KT P6SM FEW250


KBWI 182320Z 1900/2006 31011G21KT P6SM OVC050
  FM190300 32009G16KT P6SM SCT040 BKN250
  FM190700 32007KT P6SM FEW040 FEW250
  FM200200 VRB03KT P6SM BKN150


KCLE 182320Z 1900/2006 35007KT P6SM VCSH BKN035
  TEMPO 1900/1901 5SM -SHSN
  FM190300 33005KT P6SM BKN035
  FM190600 VRB03KT P6SM SCT250
  FM191800 14004KT P6SM BKN200


KCLT 190201Z 1902/2006 36007KT P6SM BKN150
  FM190400 03010KT P6SM SCT080 BKN120
  FM191800 04007KT P6SM VCSH SCT050 OVC080
  FM192200 05007KT P6SM OVC050
  PROB30 1922/2001 4SM -SHRA BR OVC025
  FM200100 07006KT 5SM -RA BR BKN025 OVC040


KCVG 182333Z 1900/2006 31010KT P6SM VCSH OVC035
  FM190200 33008KT P6SM BKN035
  FM190500 03004KT P6SM SCT250
  FM191400 09008KT P6SM SCT250
  FM191900 07007KT P6SM BKN250
  FM200400 09008KT 4SM -SN OVC025


KDCA 182320Z 1900/2006 32015G25KT P6SM OVC050
  FM190300 32009G16KT P6SM SCT050 BKN250
  FM190700 33007KT P6SM FEW040 FEW250
  FM200200 VRB03KT P6SM BKN150


KDEN 190200Z 1902/2006 29011KT P6SM -SN BKN014 OVC030
  FM190400 25010KT P6SM -SN SCT020 BKN040
  FM190600 19010KT P6SM VCSH SCT020 OVC040
  FM191000 17013KT 6SM -SN SCT020 OVC030
  TEMPO 1912/1914 3SM -SN BKN020
  FM191400 08006KT P6SM BKN020
  FM192000 07006KT P6SM SCT020 BKN050
  PROB30 1920/1924 4SM -SN BKN020
  FM200300 33006KT P6SM -SN SCT020 BKN050


KDFW 182330Z 1900/2006 03010KT P6SM OVC200
  FM191200 06015KT P6SM VCSH BKN020
  FM191400 07010KT 4SM -RA BR OVC007
  TEMPO 1916/1919 2SM +RA BR
  FM192100 04008KT 3SM -DZ BR OVC007
  FM200400 31006KT 5SM BR OVC008


KDTW 182320Z 1900/2006 33006KT P6SM SCT040
  FM190100 VRB04KT P6SM SKC
  FM192200 10005KT P6SM SCT250


KEWR 182339Z 1900/2006 30019G28KT P6SM SCT035
  FM190400 32015G23KT P6SM SKC
  FM190700 32012KT P6SM SKC
  FM190900 33008KT P6SM FEW250
  FM191800 31011KT P6SM FEW030
  FM200200 33007KT P6SM SKC


KFLL 182340Z 1900/2006 15008KT P6SM FEW025 SCT060
  FM190100 14006KT P6SM SCT025
  FM191400 12015KT P6SM SCT035


KIAD 182320Z 1900/2006 30014G23KT P6SM OVC040
  FM190300 32008KT P6SM SCT040 BKN250
  FM190900 33007KT P6SM FEW040 FEW250
  FM200000 VRB03KT P6SM BKN150


KIAH 182320Z 1900/2006 06012KT P6SM SCT080 SCT140 BKN250
  FM190300 06012KT P6SM BKN060
  FM190800 06013KT P6SM VCSH OVC028
  FM191200 05013KT 6SM -RA BR OVC017
  FM191500 06012KT 5SM -RA BR OVC008
  FM191800 06006KT 2SM RA BR OVC004


KJFK 182339Z 1900/2006 31021G30KT P6SM SCT045
  FM190400 32016G23KT P6SM SKC
  FM190900 32013KT P6SM SKC
  FM191200 33011KT P6SM FEW250
  FM191800 31011KT P6SM FEW030
  FM200200 34008KT P6SM SKC


KLAS 190205Z 1902/2006 33013G20KT P6SM SCT120 BKN220
  FM192200 34011KT P6SM FEW100 FEW250
  FM200500 23006KT P6SM BKN250


KLAX 190112Z 1901/2006 02010G15KT P6SM SCT090
  FM190300 36009KT P6SM SKC
  FM191400 03006KT P6SM SKC
  FM192000 26010KT P6SM SKC
  FM200400 VRB03KT P6SM SKC


KLGA 182339Z 1900/2006 31021G30KT P6SM SCT050
  FM190400 32017G25KT P6SM SKC
  FM190900 32013KT P6SM SKC
  FM191200 33010KT P6SM FEW250


KMCO 190211Z 1902/2006 VRB06KT P6SM SCT045 BKN070
  TEMPO 1902/1903 03012G20KT
  FM190600 02007KT P6SM BKN008 OVC020
  TEMPO 1909/1913 2SM BR BKN005
  FM191500 06008KT P6SM VCSH SCT015 BKN025
  FM200000 09007KT P6SM SCT025 BKN035


KMDW 182325Z 1900/2006 36007KT 6SM -SHSN BKN035
  FM190130 35005KT P6SM SCT035
  FM191300 07003KT P6SM FEW250
  FM191800 10006KT P6SM SCT040 BKN200
  FM200200 10009KT P6SM SCT040 OVC100


KMEM 182325Z 1900/2006 04011KT P6SM BKN250
  FM191200 06010KT P6SM BKN100
  FM191500 06010KT P6SM VCSH OVC060
  FM191900 07012KT 5SM -SHRA BR OVC015
  FM200000 07014KT 3SM SHRA OVC007


KMIA 182340Z 1900/2006 15008KT P6SM FEW025 SCT060
  FM190100 13005KT P6SM SCT025
  FM191400 12015KT P6SM SCT035


KMSP 182320Z 1900/2006 30007KT P6SM SCT030 BKN250
  FM190200 27003KT P6SM SCT150 BKN250
  FM190800 24004KT P6SM SCT250
  FM191500 18004KT P6SM BKN150
  FM192200 15005KT P6SM BKN060 OVC100


KORD 182325Z 1900/2006 35006KT P6SM VCSH BKN040
  FM190100 34005KT P6SM FEW035
  FM191100 VRB04KT P6SM FEW250
  FM191800 11006KT P6SM SCT040 BKN200
  FM200200 10009KT P6SM SCT040 OVC100


KPDX 190038Z 1901/1924 VRB04KT P6SM SCT025 BKN045 OVC070
  FM190130 VRB04KT P6SM VCSH SCT025 OVC040
  TEMPO 1902/1905 -SHRA BKN025
  FM190500 VRB03KT P6SM OVC025
  FM191000 23002KT P6SM OVC015


KPHL 190215Z 1902/2006 33010G18KT P6SM BKN045
  FM190400 32010KT P6SM SCT045
  FM190800 32008KT P6SM SCT200
  FM200400 VRB03KT P6SM BKN150


KPHX 182339Z 1900/2006 26008KT P6SM VCSH SCT050 BKN070
  FM190300 28004KT P6SM FEW050 SCT100
  FM191400 VRB04KT P6SM FEW050
  FM191900 26008KT P6SM FEW050
  FM192200 27010G18KT P6SM SCT060
  FM200300 26006KT P6SM SKC


KPIT 182325Z 1900/2006 31010KT P6SM -SHSN OVC025
  TEMPO 1900/1902 3SM -SHSN
  FM190200 31008KT P6SM BKN035
  FM190600 33005KT P6SM SCT110


KSAN 190122Z 1901/2006 31007KT P6SM VCSH BKN040 BKN100
  FM190200 04008KT P6SM -SHRA BKN040
  FM190400 31006KT P6SM SCT040
  FM192000 28008KT P6SM FEW250
  FM200200 VRB03KT P6SM BKN200


KSEA 182320Z 1900/2006 16005KT P6SM SCT020 BKN040
  FM190800 16005KT P6SM OVC020
  FM191200 17005KT P6SM OVC015
  FM192100 18009KT P6SM -RA OVC015


KSFO 182322Z 1900/2006 34017KT P6SM FEW030
  FM190400 31008KT P6SM SKC
  FM191300 05004KT P6SM SKC
  FM191900 32008KT P6SM SKC
  FM192100 29014KT P6SM FEW250
  FM200300 28010KT P6SM FEW040 SCT250


KSLC 182339Z 1900/2006 29010KT P6SM VCSH SCT040 BKN070
  TEMPO 1900/1902 BKN030
  FM190400 16004KT P6SM SCT040 SCT070
  FM191700 34006KT P6SM VCSH SCT040 BKN070
  FM200400 34006KT P6SM SCT040 BKN080


KSTL 182320Z 1900/2006 32005KT P6SM OVC035
  FM190500 02006KT P6SM BKN035
  FM190900 VRB04KT P6SM SCT080
  FM192300 10007KT 3SM -SN OVC050
  FM200000 10010KT 1 1/2SM -SN BR OVC040
  FM200300 08009KT 1 1/2SM -SN BR OVC010


KTPA 182339Z 1900/2006 VRB04KT P6SM FEW040
  FM190900 05005KT P6SM SCT003 BKN008
  TEMPO 1910/1914 4SM BR BKN003
  FM191500 08007KT P6SM SCT008 BKN015
  FM191700 12007KT P6SM SCT015 BKN035
  FM192000 13007KT P6SM BKN040
  FM200000 10005KT P6SM SCT040